sensor_id;sensor_type;location;lat;lon;timestamp;pressure;altitude;pressure_sealevel;temperature;humidity
49455;BME280;69710;64.656;21.218;2023-09-19T00:01:19;100833.23;;;10.83;100.00
49455;BME280;69710;64.656;21.218;2023-09-19T00:03:47;100825.42;;;11.00;100.00
49455;BME280;69710;64.656;21.218;2023-09-19T00:06:14;100816.22;;;10.85;100.00
49455;BME280;69710;64.656;21.218;2023-09-19T00:08:42;100810.85;;;11.01;100.00
49455;BME280;69710;64.656;21.218;2023-09-19T00:11:10;100804.71;;;10.68;100.00
49455;BME280;69710;64.656;21.218;2023-09-19T00:13:37;100795.52;;;11.17;100.00
49455;BME280;69710;64.656;21.218;2023-09-19T00:16:09;100785.86;;;10.86;100.00
49455;BME280;69710;64.656;21.218;2023-09-19T00:18:37;100782.17;;;10.71;100.00
49455;BME280;69710;64.656;21.218;2023-09-19T00:21:05;100781.89;;;10.64;100.00
49455;BME280;69710;64.656;21.218;2023-09-19T00:23:33;100778.20;;;10.68;100.00
49455;BME280;69710;64.656;21.218;2023-09-19T00:26:01;100775.32;;;10.51;100.00
49455;BME280;69710;64.656;21.218;2023-09-19T00:28:28;100773.26;;;11.05;100.00
49455;BME280;69710;64.656;21.218;2023-09-19T00:30:56;100768.08;;;10.36;100.00
49455;BME280;69710;64.656;21.218;2023-09-19T00:33:23;100763.65;;;10.63;100.00
49455;BME280;69710;64.656;21.218;2023-09-19T00:35:51;100760.29;;;11.05;100.00
49455;BME280;69710;64.656;21.218;2023-09-19T00:38:20;100759.54;;;10.89;100.00
49455;BME280;69710;64.656;21.218;2023-09-19T00:40:49;100762.01;;;10.76;100.00
49455;BME280;69710;64.656;21.218;2023-09-19T00:43:17;100757.68;;;10.60;100.00
49455;BME280;69710;64.656;21.218;2023-09-19T00:45:46;100754.01;;;10.56;100.00
49455;BME280;69710;64.656;21.218;2023-09-19T00:48:15;100756.87;;;10.70;100.00
49455;BME280;69710;64.656;21.218;2023-09-19T00:50:44;100754.74;;;11.11;100.00
49455;BME280;69710;64.656;21.218;2023-09-19T00:53:15;100758.33;;;10.61;100.00
49455;BME280;69710;64.656;21.218;2023-09-19T00:55:44;100759.93;;;11.00;100.00
49455;BME280;69710;64.656;21.218;2023-09-19T00:58:13;100757.53;;;10.22;100.00
49455;BME280;69710;64.656;21.218;2023-09-19T01:00:41;100755.12;;;11.20;100.00
49455;BME280;69710;64.656;21.218;2023-09-19T01:03:09;100748.93;;;11.21;100.00
49455;BME280;69710;64.656;21.218;2023-09-19T01:05:37;100746.15;;;11.26;100.00
49455;BME280;69710;64.656;21.218;2023-09-19T01:08:05;100747.58;;;10.64;100.00
49455;BME280;69710;64.656;21.218;2023-09-19T01:10:33;100739.67;;;10.99;100.00
49455;BME280;69710;64.656;21.218;2023-09-19T01:13:08;100734.93;;;10.66;100.00
49455;BME280;69710;64.656;21.218;2023-09-19T01:15:44;100725.91;;;11.10;100.00
49455;BME280;69710;64.656;21.218;2023-09-19T01:18:26;100717.60;;;11.31;100.00
49455;BME280;69710;64.656;21.218;2023-09-19T01:21:00;100718.36;;;10.52;100.00
49455;BME280;69710;64.656;21.218;2023-09-19T01:23:46;100713.83;;;10.46;100.00
49455;BME280;69710;64.656;21.218;2023-09-19T01:26:31;100704.08;;;10.36;100.00
49455;BME280;69710;64.656;21.218;2023-09-19T01:29:21;100697.61;;;11.21;100.00
49455;BME280;69710;64.656;21.218;2023-09-19T01:31:52;100685.10;;;10.18;100.00
49455;BME280;69710;64.656;21.218;2023-09-19T01:34:20;100677.79;;;10.56;100.00
49455;BME280;69710;64.656;21.218;2023-09-19T01:36:47;100670.98;;;10.92;100.00
49455;BME280;69710;64.656;21.218;2023-09-19T01:39:16;100665.73;;;11.11;100.00
49455;BME280;69710;64.656;21.218;2023-09-19T01:41:56;100657.38;;;10.85;100.00
49455;BME280;69710;64.656;21.218;2023-09-19T01:44:34;100652.77;;;10.82;100.00
49455;BME280;69710;64.656;21.218;2023-09-19T01:47:11;100643.35;;;10.28;100.00
49455;BME280;69710;64.656;21.218;2023-09-19T01:49:48;100636.79;;;10.58;100.00
49455;BME280;69710;64.656;21.218;2023-09-19T01:52:20;100627.62;;;10.38;100.00
49455;BME280;69710;64.656;21.218;2023-09-19T01:55:06;100622.01;;;10.74;100.00
49455;BME280;69710;64.656;21.218;2023-09-19T01:57:49;100614.18;;;10.80;100.00
49455;BME280;69710;64.656;21.218;2023-09-19T02:00:20;100609.17;;;10.74;100.00
49455;BME280;69710;64.656;21.218;2023-09-19T02:02:49;100598.25;;;10.98;100.00
49455;BME280;69710;64.656;21.218;2023-09-19T02:05:22;100589.22;;;10.74;100.00
49455;BME280;69710;64.656;21.218;2023-09-19T02:07:51;100579.43;;;10.65;100.00
49455;BME280;69710;64.656;21.218;2023-09-19T02:10:19;100574.58;;;10.66;100.00
49455;BME280;69710;64.656;21.218;2023-09-19T02:12:46;100573.59;;;10.69;100.00
49455;BME280;69710;64.656;21.218;2023-09-19T02:15:14;100568.39;;;10.55;100.00
49455;BME280;69710;64.656;21.218;2023-09-19T02:17:42;100558.79;;;10.93;100.00
49455;BME280;69710;64.656;21.218;2023-09-19T02:20:11;100557.81;;;10.34;100.00
49455;BME280;69710;64.656;21.218;2023-09-19T02:22:39;100551.11;;;10.51;100.00
49455;BME280;69710;64.656;21.218;2023-09-19T02:25:07;100547.66;;;10.51;100.00
49455;BME280;69710;64.656;21.218;2023-09-19T02:27:35;100543.06;;;10.56;100.00
49455;BME280;69710;64.656;21.218;2023-09-19T02:30:04;100537.01;;;10.87;100.00
49455;BME280;69710;64.656;21.218;2023-09-19T02:32:32;100528.79;;;10.89;100.00
49455;BME280;69710;64.656;21.218;2023-09-19T02:35:00;100525.02;;;10.86;100.00
49455;BME280;69710;64.656;21.218;2023-09-19T02:37:28;100517.08;;;10.52;100.00
49455;BME280;69710;64.656;21.218;2023-09-19T02:39:56;100517.78;;;10.99;100.00
49455;BME280;69710;64.656;21.218;2023-09-19T02:42:24;100514.77;;;10.74;100.00
49455;BME280;69710;64.656;21.218;2023-09-19T02:44:52;100502.68;;;10.73;100.00
49455;BME280;69710;64.656;21.218;2023-09-19T02:47:19;100493.22;;;10.45;100.00
49455;BME280;69710;64.656;21.218;2023-09-19T02:49:47;100491.51;;;10.57;100.00
49455;BME280;69710;64.656;21.218;2023-09-19T02:52:15;100485.21;;;10.43;100.00
49455;BME280;69710;64.656;21.218;2023-09-19T02:54:43;100481.96;;;10.35;100.00
49455;BME280;69710;64.656;21.218;2023-09-19T02:57:11;100472.04;;;10.16;100.00
49455;BME280;69710;64.656;21.218;2023-09-19T02:59:39;100462.08;;;10.39;100.00
49455;BME280;69710;64.656;21.218;2023-09-19T03:02:07;100457.98;;;10.35;100.00
49455;BME280;69710;64.656;21.218;2023-09-19T03:04:35;100459.69;;;10.32;100.00
49455;BME280;69710;64.656;21.218;2023-09-19T03:07:03;100464.89;;;10.26;100.00
49455;BME280;69710;64.656;21.218;2023-09-19T03:09:31;100465.58;;;10.14;100.00
49455;BME280;69710;64.656;21.218;2023-09-19T03:11:58;100467.37;;;10.11;100.00
49455;BME280;69710;64.656;21.218;2023-09-19T03:14:26;100466.14;;;10.05;100.00
49455;BME280;69710;64.656;21.218;2023-09-19T03:16:54;100463.60;;;10.36;100.00
49455;BME280;69710;64.656;21.218;2023-09-19T03:19:22;100458.93;;;10.88;100.00
49455;BME280;69710;64.656;21.218;2023-09-19T03:21:50;100456.58;;;10.41;100.00
49455;BME280;69710;64.656;21.218;2023-09-19T03:24:17;100453.20;;;10.00;100.00
49455;BME280;69710;64.656;21.218;2023-09-19T03:26:45;100450.26;;;9.96;100.00
49455;BME280;69710;64.656;21.218;2023-09-19T03:29:13;100450.44;;;9.77;100.00
49455;BME280;69710;64.656;21.218;2023-09-19T03:31:41;100446.57;;;9.78;100.00
49455;BME280;69710;64.656;21.218;2023-09-19T03:34:09;100442.56;;;10.45;100.00
49455;BME280;69710;64.656;21.218;2023-09-19T03:36:37;100436.34;;;9.88;100.00
49455;BME280;69710;64.656;21.218;2023-09-19T03:39:07;100431.56;;;9.90;100.00
49455;BME280;69710;64.656;21.218;2023-09-19T03:41:35;100428.98;;;9.99;100.00
49455;BME280;69710;64.656;21.218;2023-09-19T03:44:03;100424.24;;;10.24;100.00
49455;BME280;69710;64.656;21.218;2023-09-19T03:46:31;100417.78;;;10.28;100.00
49455;BME280;69710;64.656;21.218;2023-09-19T03:48:58;100405.02;;;10.72;100.00
49455;BME280;69710;64.656;21.218;2023-09-19T03:51:26;100400.11;;;10.26;100.00
49455;BME280;69710;64.656;21.218;2023-09-19T03:53:53;100400.74;;;10.44;100.00
49455;BME280;69710;64.656;21.218;2023-09-19T03:56:20;100391.81;;;10.58;100.00
49455;BME280;69710;64.656;21.218;2023-09-19T03:58:48;100387.47;;;10.32;100.00
49455;BME280;69710;64.656;21.218;2023-09-19T04:01:16;100385.74;;;10.16;100.00
49455;BME280;69710;64.656;21.218;2023-09-19T04:03:44;100382.35;;;10.09;100.00
49455;BME280;69710;64.656;21.218;2023-09-19T04:06:12;100379.18;;;10.64;100.00
49455;BME280;69710;64.656;21.218;2023-09-19T04:08:40;100376.59;;;10.73;100.00
49455;BME280;69710;64.656;21.218;2023-09-19T04:11:07;100367.65;;;10.27;100.00
49455;BME280;69710;64.656;21.218;2023-09-19T04:13:35;100365.27;;;10.36;100.00
49455;BME280;69710;64.656;21.218;2023-09-19T04:16:04;100363.95;;;10.21;100.00
49455;BME280;69710;64.656;21.218;2023-09-19T04:18:31;100360.88;;;10.50;100.00
49455;BME280;69710;64.656;21.218;2023-09-19T04:20:59;100357.65;;;10.63;100.00
49455;BME280;69710;64.656;21.218;2023-09-19T04:23:27;100357.34;;;10.25;100.00
49455;BME280;69710;64.656;21.218;2023-09-19T04:25:54;100351.72;;;10.49;100.00
49455;BME280;69710;64.656;21.218;2023-09-19T04:28:23;100346.18;;;10.35;100.00
49455;BME280;69710;64.656;21.218;2023-09-19T04:30:51;100343.64;;;10.55;100.00
49455;BME280;69710;64.656;21.218;2023-09-19T04:33:19;100335.76;;;10.54;100.00
49455;BME280;69710;64.656;21.218;2023-09-19T04:35:49;100328.81;;;10.22;100.00
49455;BME280;69710;64.656;21.218;2023-09-19T04:38:17;100319.63;;;10.55;100.00
49455;BME280;69710;64.656;21.218;2023-09-19T04:40:46;100311.30;;;10.15;100.00
49455;BME280;69710;64.656;21.218;2023-09-19T04:43:14;100302.03;;;10.43;100.00
49455;BME280;69710;64.656;21.218;2023-09-19T04:45:41;100295.50;;;10.43;100.00
49455;BME280;69710;64.656;21.218;2023-09-19T04:48:09;100291.01;;;9.88;100.00
49455;BME280;69710;64.656;21.218;2023-09-19T04:50:38;100287.63;;;10.15;100.00
49455;BME280;69710;64.656;21.218;2023-09-19T04:53:06;100278.26;;;10.47;100.00
49455;BME280;69710;64.656;21.218;2023-09-19T04:55:34;100278.85;;;10.84;100.00
49455;BME280;69710;64.656;21.218;2023-09-19T04:58:11;100270.90;;;10.19;100.00
49455;BME280;69710;64.656;21.218;2023-09-19T05:00:39;100270.90;;;10.53;100.00
49455;BME280;69710;64.656;21.218;2023-09-19T05:03:07;100268.44;;;10.58;100.00
49455;BME280;69710;64.656;21.218;2023-09-19T05:05:35;100264.50;;;10.55;100.00
49455;BME280;69710;64.656;21.218;2023-09-19T05:08:02;100260.08;;;10.70;100.00
49455;BME280;69710;64.656;21.218;2023-09-19T05:10:30;100254.74;;;10.01;100.00
49455;BME280;69710;64.656;21.218;2023-09-19T05:12:59;100250.22;;;10.23;100.00
49455;BME280;69710;64.656;21.218;2023-09-19T05:15:26;100242.95;;;10.94;100.00
49455;BME280;69710;64.656;21.218;2023-09-19T05:17:54;100243.28;;;10.98;100.00
49455;BME280;69710;64.656;21.218;2023-09-19T05:20:21;100242.22;;;10.45;100.00
49455;BME280;69710;64.656;21.218;2023-09-19T05:22:50;100234.14;;;10.13;100.00
49455;BME280;69710;64.656;21.218;2023-09-19T05:25:25;100227.99;;;10.39;100.00
49455;BME280;69710;64.656;21.218;2023-09-19T05:27:53;100221.59;;;10.52;100.00
49455;BME280;69710;64.656;21.218;2023-09-19T05:30:21;100214.37;;;10.26;100.00
49455;BME280;69710;64.656;21.218;2023-09-19T05:32:48;100207.23;;;10.30;100.00
49455;BME280;69710;64.656;21.218;2023-09-19T05:35:16;100203.12;;;10.65;100.00
49455;BME280;69710;64.656;21.218;2023-09-19T05:37:44;100195.76;;;10.48;100.00
49455;BME280;69710;64.656;21.218;2023-09-19T05:40:11;100196.42;;;10.72;100.00
49455;BME280;69710;64.656;21.218;2023-09-19T05:42:38;100188.40;;;10.62;100.00
49455;BME280;69710;64.656;21.218;2023-09-19T05:45:07;100187.32;;;10.92;100.00
49455;BME280;69710;64.656;21.218;2023-09-19T05:47:35;100184.82;;;10.72;100.00
49455;BME280;69710;64.656;21.218;2023-09-19T05:50:02;100182.88;;;10.67;100.00
49455;BME280;69710;64.656;21.218;2023-09-19T05:52:30;100185.29;;;10.75;100.00
49455;BME280;69710;64.656;21.218;2023-09-19T05:54:58;100180.72;;;10.57;100.00
49455;BME280;69710;64.656;21.218;2023-09-19T05:57:26;100180.58;;;10.40;100.00
49455;BME280;69710;64.656;21.218;2023-09-19T05:59:53;100178.08;;;10.87;100.00
49455;BME280;69710;64.656;21.218;2023-09-19T06:02:21;100173.23;;;10.61;100.00
49455;BME280;69710;64.656;21.218;2023-09-19T06:04:49;100170.85;;;10.57;100.00
49455;BME280;69710;64.656;21.218;2023-09-19T06:07:17;100162.31;;;10.30;100.00
49455;BME280;69710;64.656;21.218;2023-09-19T06:09:44;100154.14;;;10.86;100.00
49455;BME280;69710;64.656;21.218;2023-09-19T06:12:12;100150.78;;;10.46;100.00
49455;BME280;69710;64.656;21.218;2023-09-19T06:14:40;100148.55;;;10.69;100.00
49455;BME280;69710;64.656;21.218;2023-09-19T06:17:08;100142.37;;;10.33;100.00
49455;BME280;69710;64.656;21.218;2023-09-19T06:19:36;100135.56;;;10.60;100.00
49455;BME280;69710;64.656;21.218;2023-09-19T06:22:04;100135.55;;;10.72;100.00
49455;BME280;69710;64.656;21.218;2023-09-19T06:24:32;100129.85;;;10.31;100.00
49455;BME280;69710;64.656;21.218;2023-09-19T06:27:00;100131.94;;;10.69;100.00
49455;BME280;69710;64.656;21.218;2023-09-19T06:29:28;100127.19;;;10.45;100.00
49455;BME280;69710;64.656;21.218;2023-09-19T06:31:56;100124.31;;;10.59;100.00
49455;BME280;69710;64.656;21.218;2023-09-19T06:34:23;100122.07;;;10.24;100.00
49455;BME280;69710;64.656;21.218;2023-09-19T06:36:53;100120.75;;;10.64;100.00
49455;BME280;69710;64.656;21.218;2023-09-19T06:39:21;100114.24;;;11.09;100.00
49455;BME280;69710;64.656;21.218;2023-09-19T06:41:49;100106.48;;;10.58;100.00
49455;BME280;69710;64.656;21.218;2023-09-19T06:44:17;100100.23;;;10.69;100.00
49455;BME280;69710;64.656;21.218;2023-09-19T06:46:45;100095.17;;;10.57;100.00
49455;BME280;69710;64.656;21.218;2023-09-19T06:49:13;100098.55;;;10.25;100.00
49455;BME280;69710;64.656;21.218;2023-09-19T06:51:41;100089.61;;;11.05;100.00
49455;BME280;69710;64.656;21.218;2023-09-19T06:54:09;100081.08;;;10.76;100.00
49455;BME280;69710;64.656;21.218;2023-09-19T06:56:37;100073.61;;;10.93;100.00
49455;BME280;69710;64.656;21.218;2023-09-19T06:59:05;100080.12;;;10.53;100.00
49455;BME280;69710;64.656;21.218;2023-09-19T07:01:33;100076.19;;;10.92;100.00
49455;BME280;69710;64.656;21.218;2023-09-19T07:04:00;100070.30;;;10.82;100.00
49455;BME280;69710;64.656;21.218;2023-09-19T07:06:28;100058.75;;;10.55;100.00
49455;BME280;69710;64.656;21.218;2023-09-19T07:08:56;100055.09;;;10.19;100.00
49455;BME280;69710;64.656;21.218;2023-09-19T07:11:24;100056.91;;;10.58;100.00
